Terminal Aerodrome Forecast
Issued by NWS

Home | Current Version | Previous Version | Text Only | Print | Product List | Glossary On
Versions: 1 2 3 4 5 6 7 8 9 10 11 12 13 14 15 16 17
000
FTUS45 KVEF 251720
TAFVGT
TAF
KVGT 251720Z 2518/2618 15008KT P6SM FEW100
     FM252300 19010G18KT P6SM SCT100
     FM260400 18008KT P6SM FEW100=

USA.gov is the U.S. government's official web portal to all federal, state and local government web resources and services.